sensor_id;sensor_type;location;lat;lon;timestamp;P1;durP1;ratioP1;P2;durP2;ratioP2
63499;SDS011;49654;51.142;14.924;2023-04-03T00:02:01;5.57;;;2.63;;
63499;SDS011;49654;51.142;14.924;2023-04-03T00:04:30;7.33;;;2.13;;
63499;SDS011;49654;51.142;14.924;2023-04-03T00:06:57;5.03;;;2.23;;
63499;SDS011;49654;51.142;14.924;2023-04-03T00:09:23;5.23;;;2.30;;
63499;SDS011;49654;51.142;14.924;2023-04-03T00:11:50;4.43;;;2.00;;
63499;SDS011;49654;51.142;14.924;2023-04-03T00:14:17;6.00;;;2.30;;
63499;SDS011;49654;51.142;14.924;2023-04-03T00:16:44;6.53;;;2.83;;
63499;SDS011;49654;51.142;14.924;2023-04-03T00:19:11;6.20;;;2.67;;
63499;SDS011;49654;51.142;14.924;2023-04-03T00:21:39;6.13;;;2.40;;
63499;SDS011;49654;51.142;14.924;2023-04-03T00:24:06;5.47;;;2.50;;
63499;SDS011;49654;51.142;14.924;2023-04-03T00:26:33;4.73;;;2.07;;
63499;SDS011;49654;51.142;14.924;2023-04-03T00:29:00;4.90;;;2.00;;
63499;SDS011;49654;51.142;14.924;2023-04-03T00:31:27;5.43;;;2.60;;
63499;SDS011;49654;51.142;14.924;2023-04-03T00:33:54;7.60;;;2.83;;
63499;SDS011;49654;51.142;14.924;2023-04-03T00:36:21;5.03;;;2.47;;
63499;SDS011;49654;51.142;14.924;2023-04-03T00:38:50;5.53;;;2.23;;
63499;SDS011;49654;51.142;14.924;2023-04-03T00:41:17;4.57;;;2.27;;
63499;SDS011;49654;51.142;14.924;2023-04-03T00:43:44;6.13;;;2.37;;
63499;SDS011;49654;51.142;14.924;2023-04-03T00:46:11;9.67;;;2.80;;
63499;SDS011;49654;51.142;14.924;2023-04-03T00:48:39;5.53;;;2.17;;
63499;SDS011;49654;51.142;14.924;2023-04-03T00:51:09;7.23;;;2.47;;
63499;SDS011;49654;51.142;14.924;2023-04-03T00:53:40;4.40;;;2.07;;
63499;SDS011;49654;51.142;14.924;2023-04-03T00:56:12;7.90;;;2.43;;
63499;SDS011;49654;51.142;14.924;2023-04-03T00:58:43;5.67;;;2.50;;
63499;SDS011;49654;51.142;14.924;2023-04-03T01:01:16;6.40;;;2.53;;
63499;SDS011;49654;51.142;14.924;2023-04-03T01:03:47;4.80;;;2.20;;
63499;SDS011;49654;51.142;14.924;2023-04-03T01:06:14;6.93;;;2.53;;
63499;SDS011;49654;51.142;14.924;2023-04-03T01:08:44;4.73;;;2.20;;
63499;SDS011;49654;51.142;14.924;2023-04-03T01:11:13;5.97;;;2.90;;
63499;SDS011;49654;51.142;14.924;2023-04-03T01:13:40;7.13;;;2.50;;
63499;SDS011;49654;51.142;14.924;2023-04-03T01:16:07;6.83;;;2.27;;
63499;SDS011;49654;51.142;14.924;2023-04-03T01:18:36;4.50;;;1.93;;
63499;SDS011;49654;51.142;14.924;2023-04-03T01:21:21;7.17;;;2.10;;
63499;SDS011;49654;51.142;14.924;2023-04-03T01:24:11;4.80;;;2.10;;
63499;SDS011;49654;51.142;14.924;2023-04-03T01:26:48;4.80;;;1.93;;
63499;SDS011;49654;51.142;14.924;2023-04-03T01:29:15;5.37;;;2.07;;
63499;SDS011;49654;51.142;14.924;2023-04-03T01:31:48;4.97;;;2.13;;
63499;SDS011;49654;51.142;14.924;2023-04-03T01:34:16;6.27;;;2.07;;
63499;SDS011;49654;51.142;14.924;2023-04-03T01:36:43;5.63;;;2.10;;
63499;SDS011;49654;51.142;14.924;2023-04-03T01:39:10;6.67;;;2.40;;
63499;SDS011;49654;51.142;14.924;2023-04-03T01:41:37;6.20;;;2.03;;
63499;SDS011;49654;51.142;14.924;2023-04-03T01:44:04;6.50;;;2.43;;
63499;SDS011;49654;51.142;14.924;2023-04-03T01:46:31;5.20;;;2.07;;
63499;SDS011;49654;51.142;14.924;2023-04-03T01:49:00;5.97;;;2.40;;
63499;SDS011;49654;51.142;14.924;2023-04-03T01:51:27;5.50;;;2.00;;
63499;SDS011;49654;51.142;14.924;2023-04-03T01:53:54;5.97;;;2.27;;
63499;SDS011;49654;51.142;14.924;2023-04-03T01:56:21;5.20;;;2.10;;
63499;SDS011;49654;51.142;14.924;2023-04-03T01:58:48;5.00;;;2.43;;
63499;SDS011;49654;51.142;14.924;2023-04-03T02:01:15;7.90;;;2.60;;
63499;SDS011;49654;51.142;14.924;2023-04-03T02:03:42;4.80;;;2.07;;
63499;SDS011;49654;51.142;14.924;2023-04-03T02:06:10;5.40;;;2.30;;
63499;SDS011;49654;51.142;14.924;2023-04-03T02:08:37;6.93;;;2.30;;
63499;SDS011;49654;51.142;14.924;2023-04-03T02:11:04;6.83;;;1.90;;
63499;SDS011;49654;51.142;14.924;2023-04-03T02:13:31;8.00;;;1.90;;
63499;SDS011;49654;51.142;14.924;2023-04-03T02:15:58;6.50;;;2.07;;
63499;SDS011;49654;51.142;14.924;2023-04-03T02:18:25;3.83;;;1.87;;
63499;SDS011;49654;51.142;14.924;2023-04-03T02:20:52;7.10;;;2.60;;
63499;SDS011;49654;51.142;14.924;2023-04-03T02:23:20;5.60;;;2.00;;
63499;SDS011;49654;51.142;14.924;2023-04-03T02:25:47;6.07;;;2.10;;
63499;SDS011;49654;51.142;14.924;2023-04-03T02:28:15;6.10;;;2.57;;
63499;SDS011;49654;51.142;14.924;2023-04-03T02:30:42;6.50;;;2.07;;
63499;SDS011;49654;51.142;14.924;2023-04-03T02:33:09;7.17;;;2.30;;
63499;SDS011;49654;51.142;14.924;2023-04-03T02:35:36;7.83;;;2.30;;
63499;SDS011;49654;51.142;14.924;2023-04-03T02:38:05;4.27;;;2.10;;
63499;SDS011;49654;51.142;14.924;2023-04-03T02:40:33;4.53;;;2.23;;
63499;SDS011;49654;51.142;14.924;2023-04-03T02:43:00;7.57;;;2.17;;
63499;SDS011;49654;51.142;14.924;2023-04-03T02:45:27;6.07;;;2.20;;
63499;SDS011;49654;51.142;14.924;2023-04-03T02:47:54;5.07;;;2.20;;
63499;SDS011;49654;51.142;14.924;2023-04-03T02:50:21;6.90;;;2.37;;
63499;SDS011;49654;51.142;14.924;2023-04-03T02:52:48;4.30;;;2.10;;
63499;SDS011;49654;51.142;14.924;2023-04-03T02:55:15;7.97;;;2.60;;
63499;SDS011;49654;51.142;14.924;2023-04-03T02:57:43;7.17;;;2.23;;
63499;SDS011;49654;51.142;14.924;2023-04-03T03:00:10;6.07;;;2.43;;
63499;SDS011;49654;51.142;14.924;2023-04-03T03:02:38;4.53;;;1.97;;
63499;SDS011;49654;51.142;14.924;2023-04-03T03:05:05;6.20;;;2.00;;
63499;SDS011;49654;51.142;14.924;2023-04-03T03:07:33;6.33;;;2.30;;
63499;SDS011;49654;51.142;14.924;2023-04-03T03:09:59;5.87;;;2.33;;
63499;SDS011;49654;51.142;14.924;2023-04-03T03:12:26;7.63;;;2.80;;
63499;SDS011;49654;51.142;14.924;2023-04-03T03:14:55;5.83;;;2.40;;
63499;SDS011;49654;51.142;14.924;2023-04-03T03:17:22;4.83;;;2.30;;
63499;SDS011;49654;51.142;14.924;2023-04-03T03:19:49;6.30;;;2.10;;
63499;SDS011;49654;51.142;14.924;2023-04-03T03:22:16;5.60;;;2.03;;
63499;SDS011;49654;51.142;14.924;2023-04-03T03:24:43;4.20;;;2.30;;
63499;SDS011;49654;51.142;14.924;2023-04-03T03:27:10;4.00;;;2.23;;
63499;SDS011;49654;51.142;14.924;2023-04-03T03:29:37;7.87;;;2.50;;
63499;SDS011;49654;51.142;14.924;2023-04-03T03:32:06;5.27;;;2.53;;
63499;SDS011;49654;51.142;14.924;2023-04-03T03:34:32;8.53;;;2.50;;
63499;SDS011;49654;51.142;14.924;2023-04-03T03:37:00;7.93;;;2.83;;
63499;SDS011;49654;51.142;14.924;2023-04-03T03:39:27;8.60;;;2.37;;
63499;SDS011;49654;51.142;14.924;2023-04-03T03:41:53;5.23;;;2.30;;
63499;SDS011;49654;51.142;14.924;2023-04-03T03:44:20;8.63;;;2.90;;
63499;SDS011;49654;51.142;14.924;2023-04-03T03:46:48;7.07;;;2.67;;
63499;SDS011;49654;51.142;14.924;2023-04-03T03:49:17;6.63;;;2.93;;
63499;SDS011;49654;51.142;14.924;2023-04-03T03:51:44;5.87;;;2.67;;
63499;SDS011;49654;51.142;14.924;2023-04-03T03:54:11;9.47;;;2.90;;
63499;SDS011;49654;51.142;14.924;2023-04-03T03:56:38;7.60;;;2.77;;
63499;SDS011;49654;51.142;14.924;2023-04-03T03:59:05;6.43;;;2.83;;
63499;SDS011;49654;51.142;14.924;2023-04-03T04:01:32;7.50;;;3.00;;
63499;SDS011;49654;51.142;14.924;2023-04-03T04:03:59;10.83;;;2.73;;
63499;SDS011;49654;51.142;14.924;2023-04-03T04:06:27;8.93;;;3.87;;
63499;SDS011;49654;51.142;14.924;2023-04-03T04:08:54;13.17;;;6.33;;
63499;SDS011;49654;51.142;14.924;2023-04-03T04:11:21;8.30;;;4.53;;
63499;SDS011;49654;51.142;14.924;2023-04-03T04:13:48;8.33;;;3.20;;
63499;SDS011;49654;51.142;14.924;2023-04-03T04:16:15;6.33;;;3.17;;
63499;SDS011;49654;51.142;14.924;2023-04-03T04:18:42;8.43;;;3.30;;
63499;SDS011;49654;51.142;14.924;2023-04-03T04:21:09;8.10;;;2.90;;
63499;SDS011;49654;51.142;14.924;2023-04-03T04:23:37;7.73;;;3.27;;
63499;SDS011;49654;51.142;14.924;2023-04-03T04:26:04;9.00;;;3.60;;
63499;SDS011;49654;51.142;14.924;2023-04-03T04:28:31;9.73;;;3.27;;
63499;SDS011;49654;51.142;14.924;2023-04-03T04:30:58;9.27;;;2.97;;
63499;SDS011;49654;51.142;14.924;2023-04-03T04:33:25;10.00;;;3.70;;
63499;SDS011;49654;51.142;14.924;2023-04-03T04:35:52;7.60;;;3.13;;
63499;SDS011;49654;51.142;14.924;2023-04-03T04:38:19;6.40;;;3.30;;
63499;SDS011;49654;51.142;14.924;2023-04-03T04:40:48;9.47;;;3.30;;
63499;SDS011;49654;51.142;14.924;2023-04-03T04:43:16;10.33;;;3.43;;
63499;SDS011;49654;51.142;14.924;2023-04-03T04:45:43;11.70;;;3.97;;
63499;SDS011;49654;51.142;14.924;2023-04-03T04:48:10;21.40;;;10.57;;
63499;SDS011;49654;51.142;14.924;2023-04-03T04:50:37;12.30;;;4.50;;
63499;SDS011;49654;51.142;14.924;2023-04-03T04:53:04;8.93;;;4.00;;
63499;SDS011;49654;51.142;14.924;2023-04-03T04:55:31;9.10;;;3.80;;
63499;SDS011;49654;51.142;14.924;2023-04-03T04:58:00;7.83;;;4.10;;
63499;SDS011;49654;51.142;14.924;2023-04-03T05:00:27;8.80;;;3.77;;
63499;SDS011;49654;51.142;14.924;2023-04-03T05:02:54;10.03;;;4.70;;
63499;SDS011;49654;51.142;14.924;2023-04-03T05:05:21;18.17;;;7.93;;
63499;SDS011;49654;51.142;14.924;2023-04-03T05:07:48;29.13;;;15.23;;
63499;SDS011;49654;51.142;14.924;2023-04-03T05:10:15;25.13;;;12.50;;
63499;SDS011;49654;51.142;14.924;2023-04-03T05:12:42;12.20;;;8.77;;
63499;SDS011;49654;51.142;14.924;2023-04-03T05:15:10;13.87;;;10.17;;
63499;SDS011;49654;51.142;14.924;2023-04-03T05:17:37;11.73;;;6.50;;
63499;SDS011;49654;51.142;14.924;2023-04-03T05:20:05;5.83;;;3.37;;
63499;SDS011;49654;51.142;14.924;2023-04-03T05:22:32;8.07;;;3.30;;
63499;SDS011;49654;51.142;14.924;2023-04-03T05:24:59;7.47;;;2.97;;
63499;SDS011;49654;51.142;14.924;2023-04-03T05:27:26;8.47;;;3.10;;
63499;SDS011;49654;51.142;14.924;2023-04-03T05:29:54;7.37;;;3.20;;
63499;SDS011;49654;51.142;14.924;2023-04-03T05:32:23;7.77;;;3.10;;
63499;SDS011;49654;51.142;14.924;2023-04-03T05:34:50;10.50;;;3.00;;
63499;SDS011;49654;51.142;14.924;2023-04-03T05:37:18;7.93;;;2.60;;
63499;SDS011;49654;51.142;14.924;2023-04-03T05:39:45;11.20;;;6.50;;
63499;SDS011;49654;51.142;14.924;2023-04-03T05:42:12;8.43;;;3.37;;
63499;SDS011;49654;51.142;14.924;2023-04-03T05:44:39;8.07;;;3.17;;
63499;SDS011;49654;51.142;14.924;2023-04-03T05:47:06;9.57;;;2.70;;
63499;SDS011;49654;51.142;14.924;2023-04-03T05:49:34;9.57;;;3.20;;
63499;SDS011;49654;51.142;14.924;2023-04-03T05:52:06;6.27;;;3.10;;
63499;SDS011;49654;51.142;14.924;2023-04-03T05:54:33;9.03;;;4.37;;
63499;SDS011;49654;51.142;14.924;2023-04-03T05:56:59;19.53;;;9.77;;
63499;SDS011;49654;51.142;14.924;2023-04-03T05:59:26;13.57;;;6.60;;
63499;SDS011;49654;51.142;14.924;2023-04-03T06:01:53;6.23;;;2.63;;
63499;SDS011;49654;51.142;14.924;2023-04-03T06:04:21;13.83;;;5.63;;
63499;SDS011;49654;51.142;14.924;2023-04-03T06:06:50;10.83;;;3.30;;
63499;SDS011;49654;51.142;14.924;2023-04-03T06:09:18;9.37;;;3.87;;
63499;SDS011;49654;51.142;14.924;2023-04-03T06:11:46;7.40;;;3.50;;
63499;SDS011;49654;51.142;14.924;2023-04-03T06:14:13;10.53;;;3.80;;
63499;SDS011;49654;51.142;14.924;2023-04-03T06:16:40;11.70;;;4.70;;
63499;SDS011;49654;51.142;14.924;2023-04-03T06:19:08;7.27;;;2.70;;
63499;SDS011;49654;51.142;14.924;2023-04-03T06:21:35;6.30;;;2.20;;
63499;SDS011;49654;51.142;14.924;2023-04-03T06:24:04;8.37;;;2.43;;
63499;SDS011;49654;51.142;14.924;2023-04-03T06:26:31;4.77;;;2.00;;
63499;SDS011;49654;51.142;14.924;2023-04-03T06:28:58;4.43;;;1.90;;
63499;SDS011;49654;51.142;14.924;2023-04-03T06:31:26;7.03;;;2.17;;
63499;SDS011;49654;51.142;14.924;2023-04-03T06:33:53;7.00;;;2.30;;
63499;SDS011;49654;51.142;14.924;2023-04-03T06:36:19;5.67;;;2.23;;
63499;SDS011;49654;51.142;14.924;2023-04-03T06:38:47;5.57;;;2.00;;
63499;SDS011;49654;51.142;14.924;2023-04-03T06:41:16;6.23;;;2.10;;
63499;SDS011;49654;51.142;14.924;2023-04-03T06:43:43;4.70;;;1.80;;
63499;SDS011;49654;51.142;14.924;2023-04-03T06:46:12;11.30;;;2.20;;
63499;SDS011;49654;51.142;14.924;2023-04-03T06:48:41;8.13;;;2.30;;
63499;SDS011;49654;51.142;14.924;2023-04-03T06:51:11;10.33;;;2.30;;
63499;SDS011;49654;51.142;14.924;2023-04-03T06:53:43;9.47;;;2.43;;
63499;SDS011;49654;51.142;14.924;2023-04-03T06:56:11;7.30;;;2.10;;
63499;SDS011;49654;51.142;14.924;2023-04-03T06:58:39;11.57;;;4.77;;
63499;SDS011;49654;51.142;14.924;2023-04-03T07:01:07;7.97;;;2.73;;
63499;SDS011;49654;51.142;14.924;2023-04-03T07:03:35;10.70;;;4.60;;
63499;SDS011;49654;51.142;14.924;2023-04-03T07:06:02;8.43;;;2.47;;
63499;SDS011;49654;51.142;14.924;2023-04-03T07:08:30;4.83;;;2.13;;
63499;SDS011;49654;51.142;14.924;2023-04-03T07:10:57;7.03;;;2.47;;
63499;SDS011;49654;51.142;14.924;2023-04-03T07:13:24;6.87;;;3.10;;
63499;SDS011;49654;51.142;14.924;2023-04-03T07:15:53;8.57;;;2.60;;
63499;SDS011;49654;51.142;14.924;2023-04-03T07:18:20;6.30;;;2.60;;
63499;SDS011;49654;51.142;14.924;2023-04-03T07:20:47;5.70;;;2.30;;
63499;SDS011;49654;51.142;14.924;2023-04-03T07:23:14;6.10;;;1.63;;
63499;SDS011;49654;51.142;14.924;2023-04-03T07:25:42;7.37;;;2.13;;
63499;SDS011;49654;51.142;14.924;2023-04-03T07:28:10;5.80;;;2.27;;
63499;SDS011;49654;51.142;14.924;2023-04-03T07:30:41;6.53;;;2.47;;
63499;SDS011;49654;51.142;14.924;2023-04-03T07:33:10;10.07;;;4.27;;
63499;SDS011;49654;51.142;14.924;2023-04-03T07:35:38;7.73;;;2.73;;
63499;SDS011;49654;51.142;14.924;2023-04-03T07:38:05;12.93;;;7.10;;
63499;SDS011;49654;51.142;14.924;2023-04-03T07:40:32;11.17;;;5.57;;
63499;SDS011;49654;51.142;14.924;2023-04-03T07:43:00;8.83;;;2.33;;
63499;SDS011;49654;51.142;14.924;2023-04-03T07:45:27;10.10;;;2.90;;
63499;SDS011;49654;51.142;14.924;2023-04-03T07:47:54;7.30;;;1.90;;
63499;SDS011;49654;51.142;14.924;2023-04-03T07:50:23;7.10;;;2.60;;
63499;SDS011;49654;51.142;14.924;2023-04-03T07:52:50;6.10;;;3.07;;
63499;SDS011;49654;51.142;14.924;2023-04-03T07:55:18;6.93;;;2.03;;
63499;SDS011;49654;51.142;14.924;2023-04-03T07:57:45;7.73;;;2.10;;
63499;SDS011;49654;51.142;14.924;2023-04-03T08:00:12;4.57;;;1.50;;
63499;SDS011;49654;51.142;14.924;2023-04-03T08:02:43;4.47;;;2.07;;
63499;SDS011;49654;51.142;14.924;2023-04-03T08:05:09;3.80;;;1.60;;
63499;SDS011;49654;51.142;14.924;2023-04-03T08:07:38;5.97;;;2.47;;
63499;SDS011;49654;51.142;14.924;2023-04-03T08:10:05;5.80;;;2.20;;
63499;SDS011;49654;51.142;14.924;2023-04-03T08:12:33;8.13;;;2.27;;
63499;SDS011;49654;51.142;14.924;2023-04-03T08:15:00;5.10;;;2.10;;
63499;SDS011;49654;51.142;14.924;2023-04-03T08:17:27;5.27;;;1.90;;
63499;SDS011;49654;51.142;14.924;2023-04-03T08:19:54;7.07;;;2.40;;
63499;SDS011;49654;51.142;14.924;2023-04-03T08:22:21;6.33;;;1.93;;
63499;SDS011;49654;51.142;14.924;2023-04-03T08:24:49;5.53;;;1.80;;
63499;SDS011;49654;51.142;14.924;2023-04-03T08:27:16;5.37;;;1.90;;
63499;SDS011;49654;51.142;14.924;2023-04-03T08:29:43;8.03;;;2.07;;
63499;SDS011;49654;51.142;14.924;2023-04-03T08:32:10;6.10;;;2.37;;
63499;SDS011;49654;51.142;14.924;2023-04-03T08:34:37;7.47;;;1.97;;
63499;SDS011;49654;51.142;14.924;2023-04-03T08:37:05;6.43;;;1.80;;
63499;SDS011;49654;51.142;14.924;2023-04-03T08:39:32;6.40;;;1.90;;
63499;SDS011;49654;51.142;14.924;2023-04-03T08:42:01;7.40;;;2.20;;
63499;SDS011;49654;51.142;14.924;2023-04-03T08:44:36;6.97;;;2.00;;
63499;SDS011;49654;51.142;14.924;2023-04-03T08:47:11;7.40;;;1.90;;
63499;SDS011;49654;51.142;14.924;2023-04-03T08:49:47;4.97;;;2.73;;
63499;SDS011;49654;51.142;14.924;2023-04-03T08:52:19;7.57;;;2.20;;
63499;SDS011;49654;51.142;14.924;2023-04-03T08:54:50;3.23;;;1.70;;
63499;SDS011;49654;51.142;14.924;2023-04-03T08:57:24;24.10;;;9.90;;
63499;SDS011;49654;51.142;14.924;2023-04-03T08:59:56;15.93;;;7.70;;
63499;SDS011;49654;51.142;14.924;2023-04-03T09:02:27;12.27;;;3.90;;
63499;SDS011;49654;51.142;14.924;2023-04-03T09:04:58;6.10;;;3.23;;
63499;SDS011;49654;51.142;14.924;2023-04-03T09:07:27;4.67;;;1.60;;
63499;SDS011;49654;51.142;14.924;2023-04-03T09:09:59;3.23;;;1.57;;
63499;SDS011;49654;51.142;14.924;2023-04-03T09:12:34;6.10;;;1.90;;
63499;SDS011;49654;51.142;14.924;2023-04-03T09:15:07;7.70;;;4.73;;
63499;SDS011;49654;51.142;14.924;2023-04-03T09:17:45;11.63;;;5.27;;
63499;SDS011;49654;51.142;14.924;2023-04-03T09:20:21;5.77;;;3.30;;
63499;SDS011;49654;51.142;14.924;2023-04-03T09:22:54;6.17;;;3.10;;
63499;SDS011;49654;51.142;14.924;2023-04-03T09:25:22;7.40;;;3.03;;
63499;SDS011;49654;51.142;14.924;2023-04-03T09:27:53;4.07;;;2.30;;
63499;SDS011;49654;51.142;14.924;2023-04-03T09:30:21;6.93;;;2.97;;
63499;SDS011;49654;51.142;14.924;2023-04-03T09:32:50;5.20;;;1.90;;
63499;SDS011;49654;51.142;14.924;2023-04-03T09:35:21;3.77;;;1.53;;
63499;SDS011;49654;51.142;14.924;2023-04-03T09:37:51;4.13;;;1.23;;
63499;SDS011;49654;51.142;14.924;2023-04-03T09:45:56;3.23;;;1.50;;
63499;SDS011;49654;51.142;14.924;2023-04-03T09:48:49;3.67;;;1.30;;
63499;SDS011;49654;51.142;14.924;2023-04-03T09:51:17;11.70;;;6.53;;
63499;SDS011;49654;51.142;14.924;2023-04-03T09:53:44;7.57;;;5.33;;
63499;SDS011;49654;51.142;14.924;2023-04-03T09:56:18;3.67;;;1.80;;
63499;SDS011;49654;51.142;14.924;2023-04-03T09:58:49;3.33;;;1.30;;
63499;SDS011;49654;51.142;14.924;2023-04-03T10:01:23;5.43;;;1.30;;
63499;SDS011;49654;51.142;14.924;2023-04-03T10:04:03;2.60;;;1.37;;
63499;SDS011;49654;51.142;14.924;2023-04-03T10:06:33;5.97;;;1.57;;
63499;SDS011;49654;51.142;14.924;2023-04-03T10:09:02;5.30;;;1.27;;
63499;SDS011;49654;51.142;14.924;2023-04-03T10:11:31;2.80;;;1.20;;
63499;SDS011;49654;51.142;14.924;2023-04-03T10:13:59;2.07;;;1.30;;
63499;SDS011;49654;51.142;14.924;2023-04-03T10:16:32;4.80;;;1.50;;
63499;SDS011;49654;51.142;14.924;2023-04-03T10:19:19;2.60;;;1.23;;
63499;SDS011;49654;51.142;14.924;2023-04-03T10:21:58;4.73;;;2.00;;
63499;SDS011;49654;51.142;14.924;2023-04-03T10:24:31;5.90;;;1.70;;
63499;SDS011;49654;51.142;14.924;2023-04-03T10:27:08;4.00;;;2.13;;
63499;SDS011;49654;51.142;14.924;2023-04-03T10:29:42;4.97;;;2.40;;
63499;SDS011;49654;51.142;14.924;2023-04-03T10:32:22;4.53;;;2.85;;
63499;SDS011;49654;51.142;14.924;2023-04-03T10:35:00;4.60;;;1.60;;
63499;SDS011;49654;51.142;14.924;2023-04-03T10:37:35;2.67;;;1.47;;
63499;SDS011;49654;51.142;14.924;2023-04-03T10:40:15;2.53;;;1.60;;
63499;SDS011;49654;51.142;14.924;2023-04-03T10:42:52;6.30;;;1.60;;
63499;SDS011;49654;51.142;14.924;2023-04-03T10:45:26;4.40;;;2.50;;
63499;SDS011;49654;51.142;14.924;2023-04-03T10:48:00;3.87;;;1.70;;
63499;SDS011;49654;51.142;14.924;2023-04-03T10:50:38;4.60;;;1.97;;
63499;SDS011;49654;51.142;14.924;2023-04-03T10:53:12;5.90;;;2.40;;
63499;SDS011;49654;51.142;14.924;2023-04-03T10:55:48;5.17;;;1.87;;
63499;SDS011;49654;51.142;14.924;2023-04-03T10:58:24;5.90;;;2.30;;
63499;SDS011;49654;51.142;14.924;2023-04-03T11:00:57;4.23;;;1.80;;
63499;SDS011;49654;51.142;14.924;2023-04-03T11:03:32;2.73;;;1.40;;
63499;SDS011;49654;51.142;14.924;2023-04-03T11:06:05;5.07;;;1.50;;
63499;SDS011;49654;51.142;14.924;2023-04-03T11:08:35;2.40;;;1.42;;
63499;SDS011;49654;51.142;14.924;2023-04-03T11:11:09;3.57;;;2.40;;
63499;SDS011;49654;51.142;14.924;2023-04-03T11:13:41;4.33;;;1.80;;
63499;SDS011;49654;51.142;14.924;2023-04-03T11:16:14;5.70;;;1.87;;
63499;SDS011;49654;51.142;14.924;2023-04-03T11:18:47;2.73;;;2.00;;
63499;SDS011;49654;51.142;14.924;2023-04-03T11:21:19;4.83;;;3.20;;
63499;SDS011;49654;51.142;14.924;2023-04-03T11:23:48;4.73;;;2.10;;
63499;SDS011;49654;51.142;14.924;2023-04-03T11:26:17;4.87;;;1.83;;
63499;SDS011;49654;51.142;14.924;2023-04-03T11:28:46;4.40;;;1.70;;
63499;SDS011;49654;51.142;14.924;2023-04-03T11:31:24;5.07;;;1.53;;
63499;SDS011;49654;51.142;14.924;2023-04-03T11:34:04;2.53;;;1.40;;
63499;SDS011;49654;51.142;14.924;2023-04-03T11:36:41;4.53;;;2.10;;
63499;SDS011;49654;51.142;14.924;2023-04-03T11:39:15;4.43;;;1.73;;
63499;SDS011;49654;51.142;14.924;2023-04-03T11:41:47;3.93;;;2.00;;
63499;SDS011;49654;51.142;14.924;2023-04-03T11:44:30;2.77;;;1.27;;
63499;SDS011;49654;51.142;14.924;2023-04-03T11:47:03;3.93;;;1.93;;
63499;SDS011;49654;51.142;14.924;2023-04-03T11:49:54;3.03;;;1.48;;
63499;SDS011;49654;51.142;14.924;2023-04-03T11:55:44;3.58;;;1.70;;
63499;SDS011;49654;51.142;14.924;2023-04-03T11:58:22;3.05;;;1.40;;
63499;SDS011;49654;51.142;14.924;2023-04-03T12:00:52;2.55;;;1.50;;
63499;SDS011;49654;51.142;14.924;2023-04-03T12:03:55;3.27;;;1.30;;
63499;SDS011;49654;51.142;14.924;2023-04-03T12:09:32;5.00;;;2.25;;
63499;SDS011;49654;51.142;14.924;2023-04-03T12:12:27;4.78;;;2.10;;
63499;SDS011;49654;51.142;14.924;2023-04-03T12:14:53;3.42;;;1.20;;
63499;SDS011;49654;51.142;14.924;2023-04-03T12:17:22;5.47;;;2.33;;
63499;SDS011;49654;51.142;14.924;2023-04-03T12:19:54;2.95;;;1.67;;
63499;SDS011;49654;51.142;14.924;2023-04-03T12:22:21;4.50;;;1.70;;
63499;SDS011;49654;51.142;14.924;2023-04-03T12:24:49;4.25;;;1.60;;
63499;SDS011;49654;51.142;14.924;2023-04-03T12:27:20;4.10;;;1.75;;
63499;SDS011;49654;51.142;14.924;2023-04-03T12:29:51;2.90;;;1.65;;
63499;SDS011;49654;51.142;14.924;2023-04-03T12:32:24;3.63;;;1.57;;
63499;SDS011;49654;51.142;14.924;2023-04-03T12:35:06;4.37;;;1.80;;
63499;SDS011;49654;51.142;14.924;2023-04-03T12:37:48;3.60;;;1.90;;
63499;SDS011;49654;51.142;14.924;2023-04-03T12:40:30;4.00;;;1.53;;
63499;SDS011;49654;51.142;14.924;2023-04-03T12:43:11;3.40;;;1.87;;
63499;SDS011;49654;51.142;14.924;2023-04-03T12:45:56;8.67;;;2.33;;
63499;SDS011;49654;51.142;14.924;2023-04-03T12:48:28;3.40;;;1.63;;
63499;SDS011;49654;51.142;14.924;2023-04-03T12:50:57;4.10;;;1.90;;
63499;SDS011;49654;51.142;14.924;2023-04-03T12:53:26;3.60;;;1.40;;
63499;SDS011;49654;51.142;14.924;2023-04-03T12:55:56;2.70;;;1.53;;
63499;SDS011;49654;51.142;14.924;2023-04-03T12:58:24;4.20;;;1.80;;
63499;SDS011;49654;51.142;14.924;2023-04-03T13:01:01;2.92;;;1.80;;
63499;SDS011;49654;51.142;14.924;2023-04-03T13:03:29;3.50;;;1.60;;
63499;SDS011;49654;51.142;14.924;2023-04-03T13:05:59;3.60;;;1.67;;
63499;SDS011;49654;51.142;14.924;2023-04-03T13:08:28;3.40;;;1.70;;
63499;SDS011;49654;51.142;14.924;2023-04-03T13:10:58;3.77;;;1.90;;
63499;SDS011;49654;51.142;14.924;2023-04-03T13:13:27;6.60;;;2.80;;
63499;SDS011;49654;51.142;14.924;2023-04-03T13:15:55;7.30;;;5.47;;
63499;SDS011;49654;51.142;14.924;2023-04-03T13:18:24;5.67;;;2.80;;
63499;SDS011;49654;51.142;14.924;2023-04-03T13:20:53;4.07;;;2.17;;
63499;SDS011;49654;51.142;14.924;2023-04-03T13:23:26;2.87;;;2.07;;
63499;SDS011;49654;51.142;14.924;2023-04-03T13:25:53;11.93;;;7.87;;
63499;SDS011;49654;51.142;14.924;2023-04-03T13:28:23;4.27;;;1.80;;
63499;SDS011;49654;51.142;14.924;2023-04-03T13:30:55;5.60;;;2.07;;
63499;SDS011;49654;51.142;14.924;2023-04-03T13:33:30;4.18;;;2.33;;
63499;SDS011;49654;51.142;14.924;2023-04-03T13:36:00;2.97;;;1.60;;
63499;SDS011;49654;51.142;14.924;2023-04-03T13:38:31;3.35;;;1.83;;
63499;SDS011;49654;51.142;14.924;2023-04-03T13:41:00;3.88;;;1.50;;
63499;SDS011;49654;51.142;14.924;2023-04-03T13:43:30;8.68;;;4.05;;
63499;SDS011;49654;51.142;14.924;2023-04-03T13:46:00;3.55;;;2.40;;
63499;SDS011;49654;51.142;14.924;2023-04-03T13:48:38;3.17;;;1.92;;
63499;SDS011;49654;51.142;14.924;2023-04-03T13:51:15;3.08;;;1.80;;
63499;SDS011;49654;51.142;14.924;2023-04-03T13:53:45;13.38;;;8.35;;
63499;SDS011;49654;51.142;14.924;2023-04-03T13:56:18;7.60;;;4.40;;
63499;SDS011;49654;51.142;14.924;2023-04-03T13:59:04;3.90;;;2.53;;
63499;SDS011;49654;51.142;14.924;2023-04-03T14:01:47;4.07;;;2.15;;
63499;SDS011;49654;51.142;14.924;2023-04-03T14:04:18;2.58;;;1.70;;
63499;SDS011;49654;51.142;14.924;2023-04-03T14:06:48;4.32;;;1.63;;
63499;SDS011;49654;51.142;14.924;2023-04-03T14:09:17;3.70;;;1.67;;
63499;SDS011;49654;51.142;14.924;2023-04-03T14:11:46;4.63;;;2.50;;
63499;SDS011;49654;51.142;14.924;2023-04-03T14:14:14;5.87;;;2.90;;
63499;SDS011;49654;51.142;14.924;2023-04-03T14:16:44;4.33;;;1.63;;
63499;SDS011;49654;51.142;14.924;2023-04-03T14:19:18;2.45;;;1.83;;
63499;SDS011;49654;51.142;14.924;2023-04-03T14:21:48;3.63;;;2.13;;
63499;SDS011;49654;51.142;14.924;2023-04-03T14:24:16;4.80;;;1.83;;
63499;SDS011;49654;51.142;14.924;2023-04-03T14:26:44;6.65;;;1.90;;
63499;SDS011;49654;51.142;14.924;2023-04-03T14:29:13;4.60;;;1.92;;
63499;SDS011;49654;51.142;14.924;2023-04-03T14:31:40;4.13;;;1.83;;
63499;SDS011;49654;51.142;14.924;2023-04-03T14:34:09;3.55;;;1.60;;
63499;SDS011;49654;51.142;14.924;2023-04-03T14:36:38;3.53;;;1.75;;
63499;SDS011;49654;51.142;14.924;2023-04-03T14:39:07;2.58;;;1.63;;
63499;SDS011;49654;51.142;14.924;2023-04-03T14:41:37;2.40;;;1.38;;
63499;SDS011;49654;51.142;14.924;2023-04-03T14:44:04;3.38;;;1.52;;
63499;SDS011;49654;51.142;14.924;2023-04-03T14:46:32;4.45;;;2.10;;
63499;SDS011;49654;51.142;14.924;2023-04-03T14:49:00;4.85;;;1.90;;
63499;SDS011;49654;51.142;14.924;2023-04-03T14:51:27;4.32;;;1.70;;
63499;SDS011;49654;51.142;14.924;2023-04-03T14:53:56;3.17;;;1.90;;
63499;SDS011;49654;51.142;14.924;2023-04-03T14:56:24;5.45;;;3.63;;
63499;SDS011;49654;51.142;14.924;2023-04-03T14:58:54;4.80;;;2.90;;
63499;SDS011;49654;51.142;14.924;2023-04-03T15:01:23;5.55;;;3.70;;